sensor_id;sensor_type;location;lat;lon;timestamp;pressure;altitude;pressure_sealevel;temperature;humidity
25510;BME280;13413;52.336;21.200;2023-02-21T00:01:30;99026.80;;;11.43;60.51
25510;BME280;13413;52.336;21.200;2023-02-21T00:04:26;99029.65;;;11.50;60.68
25510;BME280;13413;52.336;21.200;2023-02-21T00:07:20;99027.20;;;11.56;60.56
25510;BME280;13413;52.336;21.200;2023-02-21T00:10:13;99025.55;;;11.51;60.18
25510;BME280;13413;52.336;21.200;2023-02-21T00:13:07;99024.91;;;11.48;60.06
25510;BME280;13413;52.336;21.200;2023-02-21T00:16:02;99017.86;;;11.39;60.14
25510;BME280;13413;52.336;21.200;2023-02-21T00:18:56;99027.70;;;11.36;60.41
25510;BME280;13413;52.336;21.200;2023-02-21T00:21:50;99027.73;;;11.36;60.71
25510;BME280;13413;52.336;21.200;2023-02-21T00:24:43;99021.72;;;11.30;60.90
25510;BME280;13413;52.336;21.200;2023-02-21T00:27:37;99027.93;;;11.19;61.33
25510;BME280;13413;52.336;21.200;2023-02-21T00:30:31;99026.91;;;11.20;61.67
25510;BME280;13413;52.336;21.200;2023-02-21T00:33:25;99029.06;;;11.18;61.94
25510;BME280;13413;52.336;21.200;2023-02-21T00:36:20;99041.30;;;11.17;62.10
25510;BME280;13413;52.336;21.200;2023-02-21T00:39:14;99040.89;;;11.20;61.87
25510;BME280;13413;52.336;21.200;2023-02-21T00:42:08;99034.26;;;11.04;61.66
25510;BME280;13413;52.336;21.200;2023-02-21T00:45:01;99038.08;;;11.16;61.34
25510;BME280;13413;52.336;21.200;2023-02-21T00:47:56;99026.14;;;11.20;60.92
25510;BME280;13413;52.336;21.200;2023-02-21T00:50:50;99025.16;;;11.27;60.79
25510;BME280;13413;52.336;21.200;2023-02-21T00:53:44;99031.71;;;11.24;60.44
25510;BME280;13413;52.336;21.200;2023-02-21T00:56:38;99023.16;;;11.27;60.62
25510;BME280;13413;52.336;21.200;2023-02-21T00:59:31;99026.48;;;11.24;60.86
25510;BME280;13413;52.336;21.200;2023-02-21T01:02:25;99032.80;;;11.14;61.19
25510;BME280;13413;52.336;21.200;2023-02-21T01:05:20;99028.42;;;11.20;61.22
25510;BME280;13413;52.336;21.200;2023-02-21T01:08:14;99024.31;;;11.20;61.24
25510;BME280;13413;52.336;21.200;2023-02-21T01:11:12;99021.04;;;11.21;61.20
25510;BME280;13413;52.336;21.200;2023-02-21T01:14:06;99018.73;;;11.18;61.49
25510;BME280;13413;52.336;21.200;2023-02-21T01:17:01;99013.23;;;11.13;61.50
25510;BME280;13413;52.336;21.200;2023-02-21T01:19:55;99010.03;;;11.16;61.54
25510;BME280;13413;52.336;21.200;2023-02-21T01:22:49;99012.02;;;11.11;61.61
25510;BME280;13413;52.336;21.200;2023-02-21T01:25:43;99004.26;;;11.02;61.59
25510;BME280;13413;52.336;21.200;2023-02-21T01:28:37;98996.69;;;11.01;61.50
25510;BME280;13413;52.336;21.200;2023-02-21T01:31:31;99000.35;;;11.09;61.46
25510;BME280;13413;52.336;21.200;2023-02-21T01:34:24;98997.91;;;11.10;61.16
25510;BME280;13413;52.336;21.200;2023-02-21T01:37:19;99003.17;;;11.09;60.80
25510;BME280;13413;52.336;21.200;2023-02-21T01:40:16;98994.41;;;11.12;60.53
25510;BME280;13413;52.336;21.200;2023-02-21T01:43:16;98996.25;;;11.10;60.23
25510;BME280;13413;52.336;21.200;2023-02-21T01:46:12;99002.72;;;11.10;59.74
25510;BME280;13413;52.336;21.200;2023-02-21T01:49:11;98998.38;;;11.13;59.57
25510;BME280;13413;52.336;21.200;2023-02-21T01:52:06;98993.80;;;11.11;59.31
25510;BME280;13413;52.336;21.200;2023-02-21T01:55:00;98997.98;;;11.01;59.09
25510;BME280;13413;52.336;21.200;2023-02-21T01:57:53;99006.32;;;10.98;58.58
25510;BME280;13413;52.336;21.200;2023-02-21T02:00:48;99009.48;;;11.00;58.24
25510;BME280;13413;52.336;21.200;2023-02-21T02:03:42;99014.96;;;10.93;57.60
25510;BME280;13413;52.336;21.200;2023-02-21T02:06:36;99016.11;;;11.07;57.76
25510;BME280;13413;52.336;21.200;2023-02-21T02:09:30;99017.03;;;11.03;57.11
25510;BME280;13413;52.336;21.200;2023-02-21T02:12:38;99017.52;;;11.01;57.23
25510;BME280;13413;52.336;21.200;2023-02-21T02:22:53;99013.48;;;11.02;56.92
25510;BME280;13413;52.336;21.200;2023-02-21T02:26:17;99012.43;;;11.00;56.83
25510;BME280;13413;52.336;21.200;2023-02-21T02:29:29;99014.98;;;10.96;56.65
25510;BME280;13413;52.336;21.200;2023-02-21T02:32:41;99018.93;;;10.90;56.88
25510;BME280;13413;52.336;21.200;2023-02-21T02:35:40;99017.91;;;10.88;56.72
25510;BME280;13413;52.336;21.200;2023-02-21T02:38:40;99017.42;;;10.78;56.58
25510;BME280;13413;52.336;21.200;2023-02-21T02:41:46;99022.73;;;10.75;56.45
25510;BME280;13413;52.336;21.200;2023-02-21T02:44:49;99030.52;;;10.78;56.44
25510;BME280;13413;52.336;21.200;2023-02-21T02:47:49;99030.40;;;10.75;56.25
25510;BME280;13413;52.336;21.200;2023-02-21T02:50:46;99033.71;;;10.58;55.93
25510;BME280;13413;52.336;21.200;2023-02-21T02:53:41;99033.94;;;10.64;56.07
25510;BME280;13413;52.336;21.200;2023-02-21T02:56:35;99033.70;;;10.62;56.04
25510;BME280;13413;52.336;21.200;2023-02-21T02:59:30;99029.89;;;10.54;56.13
25510;BME280;13413;52.336;21.200;2023-02-21T03:02:44;99029.23;;;10.52;55.95
25510;BME280;13413;52.336;21.200;2023-02-21T03:05:57;99027.05;;;10.49;55.54
25510;BME280;13413;52.336;21.200;2023-02-21T03:09:00;99028.40;;;10.41;55.54
25510;BME280;13413;52.336;21.200;2023-02-21T03:12:04;99027.90;;;10.52;55.60
25510;BME280;13413;52.336;21.200;2023-02-21T03:15:06;99022.95;;;10.50;55.69
25510;BME280;13413;52.336;21.200;2023-02-21T03:18:04;99021.64;;;10.42;55.36
25510;BME280;13413;52.336;21.200;2023-02-21T03:21:02;99026.92;;;10.47;55.14
25510;BME280;13413;52.336;21.200;2023-02-21T03:23:59;99029.81;;;10.50;55.16
25510;BME280;13413;52.336;21.200;2023-02-21T03:26:56;99023.94;;;10.53;55.49
25510;BME280;13413;52.336;21.200;2023-02-21T03:29:55;99017.05;;;10.51;55.68
25510;BME280;13413;52.336;21.200;2023-02-21T03:32:51;99017.25;;;10.49;55.97
25510;BME280;13413;52.336;21.200;2023-02-21T03:35:46;99021.73;;;10.51;55.97
25510;BME280;13413;52.336;21.200;2023-02-21T03:38:40;99025.58;;;10.44;55.82
25510;BME280;13413;52.336;21.200;2023-02-21T03:41:34;99016.01;;;10.43;55.92
25510;BME280;13413;52.336;21.200;2023-02-21T03:44:28;99019.84;;;10.42;55.80
25510;BME280;13413;52.336;21.200;2023-02-21T03:47:22;99024.47;;;10.31;55.36
25510;BME280;13413;52.336;21.200;2023-02-21T03:50:16;99024.18;;;10.34;55.44
25510;BME280;13413;52.336;21.200;2023-02-21T03:53:10;99021.98;;;10.37;54.87
25510;BME280;13413;52.336;21.200;2023-02-21T03:56:07;99020.83;;;10.32;54.98
25510;BME280;13413;52.336;21.200;2023-02-21T03:59:01;99020.67;;;10.37;55.02
25510;BME280;13413;52.336;21.200;2023-02-21T04:01:55;99022.19;;;10.30;55.20
25510;BME280;13413;52.336;21.200;2023-02-21T04:04:49;99022.70;;;10.33;55.42
25510;BME280;13413;52.336;21.200;2023-02-21T04:07:43;99019.41;;;10.28;55.83
25510;BME280;13413;52.336;21.200;2023-02-21T04:10:37;99024.84;;;10.31;55.85
25510;BME280;13413;52.336;21.200;2023-02-21T04:13:31;99011.91;;;10.32;55.96
25510;BME280;13413;52.336;21.200;2023-02-21T04:16:25;98992.75;;;10.30;55.85
25510;BME280;13413;52.336;21.200;2023-02-21T04:19:19;99000.08;;;10.35;55.73
25510;BME280;13413;52.336;21.200;2023-02-21T04:22:13;99006.63;;;10.26;55.08
25510;BME280;13413;52.336;21.200;2023-02-21T04:25:11;98994.02;;;10.13;54.40
25510;BME280;13413;52.336;21.200;2023-02-21T04:28:05;99002.44;;;10.21;53.84
25510;BME280;13413;52.336;21.200;2023-02-21T04:30:59;99006.70;;;10.29;53.58
25510;BME280;13413;52.336;21.200;2023-02-21T04:33:51;99006.14;;;10.42;53.52
25510;BME280;13413;52.336;21.200;2023-02-21T04:45:09;99027.41;;;10.47;52.67
25510;BME280;13413;52.336;21.200;2023-02-21T04:48:02;99018.08;;;10.45;52.48
25510;BME280;13413;52.336;21.200;2023-02-21T04:50:56;99018.45;;;10.46;52.72
25510;BME280;13413;52.336;21.200;2023-02-21T04:53:52;99026.40;;;10.46;52.90
25510;BME280;13413;52.336;21.200;2023-02-21T04:56:45;99035.37;;;10.46;52.92
25510;BME280;13413;52.336;21.200;2023-02-21T04:59:39;99036.14;;;10.43;52.64
25510;BME280;13413;52.336;21.200;2023-02-21T05:02:34;99033.05;;;10.44;52.38
25510;BME280;13413;52.336;21.200;2023-02-21T05:05:27;99032.98;;;10.38;52.15
25510;BME280;13413;52.336;21.200;2023-02-21T05:08:20;99032.90;;;10.40;52.17
25510;BME280;13413;52.336;21.200;2023-02-21T05:11:15;99035.83;;;10.42;51.77
25510;BME280;13413;52.336;21.200;2023-02-21T05:14:08;99043.33;;;10.40;51.68
25510;BME280;13413;52.336;21.200;2023-02-21T05:17:02;99043.88;;;10.37;51.45
25510;BME280;13413;52.336;21.200;2023-02-21T05:19:56;99041.34;;;10.40;51.35
25510;BME280;13413;52.336;21.200;2023-02-21T05:22:50;99046.34;;;10.41;51.35
25510;BME280;13413;52.336;21.200;2023-02-21T05:25:45;99039.88;;;10.32;51.30
25510;BME280;13413;52.336;21.200;2023-02-21T05:28:39;99035.23;;;10.32;51.39
25510;BME280;13413;52.336;21.200;2023-02-21T05:31:33;99044.73;;;10.28;51.22
25510;BME280;13413;52.336;21.200;2023-02-21T05:34:27;99047.06;;;10.32;51.05
25510;BME280;13413;52.336;21.200;2023-02-21T05:37:22;99047.16;;;10.40;51.03
25510;BME280;13413;52.336;21.200;2023-02-21T05:40:17;99056.02;;;10.35;51.01
25510;BME280;13413;52.336;21.200;2023-02-21T05:43:12;99060.55;;;10.35;50.90
25510;BME280;13413;52.336;21.200;2023-02-21T05:46:06;99057.95;;;10.34;50.67
25510;BME280;13413;52.336;21.200;2023-02-21T05:49:02;99063.04;;;10.36;50.52
25510;BME280;13413;52.336;21.200;2023-02-21T05:51:56;99067.32;;;10.34;50.45
25510;BME280;13413;52.336;21.200;2023-02-21T05:54:50;99066.78;;;10.35;50.49
25510;BME280;13413;52.336;21.200;2023-02-21T05:57:45;99066.95;;;10.38;50.43
25510;BME280;13413;52.336;21.200;2023-02-21T06:00:39;99066.45;;;10.40;50.42
25510;BME280;13413;52.336;21.200;2023-02-21T06:03:32;99076.61;;;10.38;50.40
25510;BME280;13413;52.336;21.200;2023-02-21T06:06:29;99071.33;;;10.35;50.61
25510;BME280;13413;52.336;21.200;2023-02-21T06:09:22;99067.65;;;10.39;50.53
25510;BME280;13413;52.336;21.200;2023-02-21T06:12:16;99066.08;;;10.36;50.50
25510;BME280;13413;52.336;21.200;2023-02-21T06:15:11;99063.33;;;10.36;50.78
25510;BME280;13413;52.336;21.200;2023-02-21T06:18:04;99062.61;;;10.42;50.81
25510;BME280;13413;52.336;21.200;2023-02-21T06:20:58;99063.69;;;10.30;51.01
25510;BME280;13413;52.336;21.200;2023-02-21T06:23:53;99065.16;;;10.31;51.08
25510;BME280;13413;52.336;21.200;2023-02-21T06:26:47;99057.41;;;10.30;51.13
25510;BME280;13413;52.336;21.200;2023-02-21T06:29:40;99063.23;;;10.39;51.05
25510;BME280;13413;52.336;21.200;2023-02-21T06:32:35;99071.52;;;10.42;51.06
25510;BME280;13413;52.336;21.200;2023-02-21T06:35:29;99071.19;;;10.34;51.09
25510;BME280;13413;52.336;21.200;2023-02-21T06:38:23;99076.94;;;10.36;51.25
25510;BME280;13413;52.336;21.200;2023-02-21T06:41:17;99078.64;;;10.33;51.06
25510;BME280;13413;52.336;21.200;2023-02-21T06:44:13;99088.39;;;10.37;51.24
25510;BME280;13413;52.336;21.200;2023-02-21T06:47:07;99087.17;;;10.36;51.15
25510;BME280;13413;52.336;21.200;2023-02-21T06:50:01;99097.56;;;10.40;51.13
25510;BME280;13413;52.336;21.200;2023-02-21T06:52:54;99099.03;;;10.42;50.94
25510;BME280;13413;52.336;21.200;2023-02-21T06:55:47;99107.11;;;10.46;50.92
25510;BME280;13413;52.336;21.200;2023-02-21T07:01:23;99106.91;;;10.46;51.01
25510;BME280;13413;52.336;21.200;2023-02-21T07:04:17;99120.20;;;10.50;50.97
25510;BME280;13413;52.336;21.200;2023-02-21T07:07:11;99128.19;;;10.45;50.88
25510;BME280;13413;52.336;21.200;2023-02-21T07:10:06;99130.40;;;10.45;50.92
25510;BME280;13413;52.336;21.200;2023-02-21T07:13:00;99138.63;;;10.47;50.97
25510;BME280;13413;52.336;21.200;2023-02-21T07:15:54;99144.14;;;10.45;51.23
25510;BME280;13413;52.336;21.200;2023-02-21T07:18:48;99147.81;;;10.47;51.17
25510;BME280;13413;52.336;21.200;2023-02-21T07:21:42;99159.67;;;10.47;51.23
25510;BME280;13413;52.336;21.200;2023-02-21T07:24:36;99165.48;;;10.44;51.26
25510;BME280;13413;52.336;21.200;2023-02-21T07:27:30;99167.75;;;10.42;51.34
25510;BME280;13413;52.336;21.200;2023-02-21T07:30:24;99174.11;;;10.45;51.39
25510;BME280;13413;52.336;21.200;2023-02-21T07:33:18;99174.73;;;10.48;51.45
25510;BME280;13413;52.336;21.200;2023-02-21T07:36:12;99192.52;;;10.47;51.37
25510;BME280;13413;52.336;21.200;2023-02-21T07:39:06;99203.73;;;10.47;51.59
25510;BME280;13413;52.336;21.200;2023-02-21T07:42:00;99201.23;;;10.44;52.01
25510;BME280;13413;52.336;21.200;2023-02-21T07:44:57;99207.39;;;10.48;52.08
25510;BME280;13413;52.336;21.200;2023-02-21T07:47:50;99218.88;;;10.38;52.30
25510;BME280;13413;52.336;21.200;2023-02-21T07:50:45;99220.55;;;10.34;52.43
25510;BME280;13413;52.336;21.200;2023-02-21T07:53:40;99216.67;;;10.33;52.68
25510;BME280;13413;52.336;21.200;2023-02-21T07:56:34;99223.73;;;10.34;52.60
25510;BME280;13413;52.336;21.200;2023-02-21T07:59:28;99240.85;;;10.32;52.89
25510;BME280;13413;52.336;21.200;2023-02-21T08:02:22;99240.77;;;10.31;52.93
25510;BME280;13413;52.336;21.200;2023-02-21T08:05:17;99244.36;;;10.32;53.02
25510;BME280;13413;52.336;21.200;2023-02-21T08:08:10;99249.71;;;10.27;53.25
25510;BME280;13413;52.336;21.200;2023-02-21T08:11:03;99259.19;;;10.29;53.66
25510;BME280;13413;52.336;21.200;2023-02-21T08:13:57;99256.58;;;10.31;53.90
25510;BME280;13413;52.336;21.200;2023-02-21T08:16:54;99263.77;;;10.32;54.09
25510;BME280;13413;52.336;21.200;2023-02-21T08:31:08;99287.23;;;10.25;54.93
25510;BME280;13413;52.336;21.200;2023-02-21T08:34:03;99298.67;;;10.23;55.33
25510;BME280;13413;52.336;21.200;2023-02-21T08:36:57;99293.45;;;10.20;55.52
25510;BME280;13413;52.336;21.200;2023-02-21T08:39:51;99299.02;;;10.28;55.44
25510;BME280;13413;52.336;21.200;2023-02-21T08:42:49;99302.52;;;10.33;55.45
25510;BME280;13413;52.336;21.200;2023-02-21T08:45:42;99313.46;;;10.31;55.82
25510;BME280;13413;52.336;21.200;2023-02-21T08:48:36;99315.46;;;10.19;56.42
25510;BME280;13413;52.336;21.200;2023-02-21T08:51:32;99315.75;;;10.17;56.57
25510;BME280;13413;52.336;21.200;2023-02-21T08:54:25;99319.78;;;10.17;56.50
25510;BME280;13413;52.336;21.200;2023-02-21T08:57:19;99314.17;;;10.24;56.45
25510;BME280;13413;52.336;21.200;2023-02-21T09:03:09;99321.34;;;10.19;56.99
25510;BME280;13413;52.336;21.200;2023-02-21T09:06:04;99325.77;;;10.26;56.67
25510;BME280;13413;52.336;21.200;2023-02-21T09:08:57;99331.81;;;10.20;56.47
25510;BME280;13413;52.336;21.200;2023-02-21T09:11:51;99329.38;;;10.22;56.72
25510;BME280;13413;52.336;21.200;2023-02-21T09:14:45;99338.64;;;10.23;56.55
25510;BME280;13413;52.336;21.200;2023-02-21T09:17:39;99344.84;;;10.26;56.40
25510;BME280;13413;52.336;21.200;2023-02-21T09:20:33;99342.70;;;10.30;56.43
25510;BME280;13413;52.336;21.200;2023-02-21T09:23:28;99354.84;;;10.36;56.45
25510;BME280;13413;52.336;21.200;2023-02-21T09:26:23;99361.23;;;10.45;56.46
25510;BME280;13413;52.336;21.200;2023-02-21T09:29:17;99356.46;;;10.49;57.05
25510;BME280;13413;52.336;21.200;2023-02-21T09:32:12;99368.63;;;10.38;57.43
25510;BME280;13413;52.336;21.200;2023-02-21T09:35:08;99369.72;;;10.37;57.72
25510;BME280;13413;52.336;21.200;2023-02-21T09:38:03;99367.83;;;10.33;57.84
25510;BME280;13413;52.336;21.200;2023-02-21T09:41:01;99373.27;;;10.36;57.95
25510;BME280;13413;52.336;21.200;2023-02-21T09:43:56;99378.36;;;10.36;57.96
25510;BME280;13413;52.336;21.200;2023-02-21T09:46:53;99377.45;;;10.34;58.19
25510;BME280;13413;52.336;21.200;2023-02-21T09:49:47;99382.03;;;10.36;58.11
25510;BME280;13413;52.336;21.200;2023-02-21T09:52:44;99377.46;;;10.33;58.09
25510;BME280;13413;52.336;21.200;2023-02-21T09:55:40;99388.58;;;10.40;58.02
25510;BME280;13413;52.336;21.200;2023-02-21T09:58:35;99390.27;;;10.45;58.03
25510;BME280;13413;52.336;21.200;2023-02-21T10:01:46;99389.75;;;10.48;57.92
25510;BME280;13413;52.336;21.200;2023-02-21T10:04:54;99394.54;;;10.54;57.90
25510;BME280;13413;52.336;21.200;2023-02-21T10:07:56;99399.75;;;10.62;57.72
25510;BME280;13413;52.336;21.200;2023-02-21T10:10:54;99408.11;;;10.62;57.69
25510;BME280;13413;52.336;21.200;2023-02-21T10:13:54;99406.30;;;10.66;57.42
25510;BME280;13413;52.336;21.200;2023-02-21T10:16:55;99412.15;;;10.73;57.48
25510;BME280;13413;52.336;21.200;2023-02-21T10:19:51;99413.16;;;10.82;57.20
25510;BME280;13413;52.336;21.200;2023-02-21T10:22:47;99425.23;;;10.79;57.30
25510;BME280;13413;52.336;21.200;2023-02-21T10:25:44;99424.83;;;10.82;57.27
25510;BME280;13413;52.336;21.200;2023-02-21T10:28:39;99430.25;;;10.81;57.17
25510;BME280;13413;52.336;21.200;2023-02-21T10:31:34;99429.50;;;10.85;57.14
25510;BME280;13413;52.336;21.200;2023-02-21T10:34:30;99439.82;;;10.87;57.00
25510;BME280;13413;52.336;21.200;2023-02-21T10:37:34;99439.70;;;10.88;56.97
25510;BME280;13413;52.336;21.200;2023-02-21T10:40:33;99443.27;;;10.96;57.03
25510;BME280;13413;52.336;21.200;2023-02-21T10:52:07;99446.91;;;11.13;56.06
25510;BME280;13413;52.336;21.200;2023-02-21T10:55:03;99453.13;;;11.16;55.82
25510;BME280;13413;52.336;21.200;2023-02-21T10:58:07;99454.19;;;11.25;55.25
25510;BME280;13413;52.336;21.200;2023-02-21T11:01:12;99457.71;;;11.33;54.76
25510;BME280;13413;52.336;21.200;2023-02-21T11:04:24;99459.19;;;11.32;54.51
25510;BME280;13413;52.336;21.200;2023-02-21T11:07:19;99465.73;;;11.50;54.46
25510;BME280;13413;52.336;21.200;2023-02-21T11:10:30;99472.63;;;11.64;54.09
25510;BME280;13413;52.336;21.200;2023-02-21T11:13:44;99477.27;;;11.74;54.11
25510;BME280;13413;52.336;21.200;2023-02-21T11:16:37;99476.25;;;11.83;54.18
25510;BME280;13413;52.336;21.200;2023-02-21T11:19:42;99482.69;;;12.01;54.13
25510;BME280;13413;52.336;21.200;2023-02-21T11:22:39;99491.48;;;11.99;53.71
25510;BME280;13413;52.336;21.200;2023-02-21T11:25:39;99495.07;;;11.75;54.27
25510;BME280;13413;52.336;21.200;2023-02-21T11:28:37;99504.81;;;11.58;54.79
25510;BME280;13413;52.336;21.200;2023-02-21T11:31:33;99507.09;;;11.74;54.30
25510;BME280;13413;52.336;21.200;2023-02-21T11:34:30;99498.23;;;12.05;54.24
25510;BME280;13413;52.336;21.200;2023-02-21T11:37:24;99501.17;;;12.54;53.42
25510;BME280;13413;52.336;21.200;2023-02-21T11:40:31;99503.91;;;12.83;53.01
25510;BME280;13413;52.336;21.200;2023-02-21T11:43:27;99502.89;;;12.83;53.05
25510;BME280;13413;52.336;21.200;2023-02-21T11:46:33;99503.52;;;12.79;53.21
25510;BME280;13413;52.336;21.200;2023-02-21T11:49:35;99502.64;;;13.05;52.97
25510;BME280;13413;52.336;21.200;2023-02-21T11:52:35;99499.45;;;13.29;52.36
25510;BME280;13413;52.336;21.200;2023-02-21T11:56:04;99506.61;;;13.31;51.85
25510;BME280;13413;52.336;21.200;2023-02-21T11:59:05;99504.46;;;13.09;52.04
25510;BME280;13413;52.336;21.200;2023-02-21T12:02:26;99501.48;;;12.99;51.79
25510;BME280;13413;52.336;21.200;2023-02-21T12:05:41;99511.95;;;12.63;51.15
25510;BME280;13413;52.336;21.200;2023-02-21T12:08:49;99509.08;;;12.48;51.61
25510;BME280;13413;52.336;21.200;2023-02-21T12:12:00;99510.08;;;12.45;51.68
25510;BME280;13413;52.336;21.200;2023-02-21T12:15:09;99508.44;;;12.27;51.41
25510;BME280;13413;52.336;21.200;2023-02-21T12:18:23;99511.17;;;12.30;51.04
25510;BME280;13413;52.336;21.200;2023-02-21T12:25:01;99520.36;;;12.60;50.72
25510;BME280;13413;52.336;21.200;2023-02-21T12:28:00;99519.23;;;12.56;50.79
25510;BME280;13413;52.336;21.200;2023-02-21T12:31:10;99522.71;;;12.48;51.02
25510;BME280;13413;52.336;21.200;2023-02-21T12:34:20;99524.95;;;12.48;51.31
25510;BME280;13413;52.336;21.200;2023-02-21T12:37:27;99532.40;;;12.31;51.18
25510;BME280;13413;52.336;21.200;2023-02-21T12:40:30;99547.14;;;12.04;51.24
25510;BME280;13413;52.336;21.200;2023-02-21T12:43:40;99548.61;;;11.93;51.39
25510;BME280;13413;52.336;21.200;2023-02-21T12:46:41;99550.57;;;11.87;51.57
25510;BME280;13413;52.336;21.200;2023-02-21T12:49:43;99556.33;;;11.78;51.84
25510;BME280;13413;52.336;21.200;2023-02-21T12:52:41;99552.83;;;11.61;52.44
25510;BME280;13413;52.336;21.200;2023-02-21T12:55:44;99564.23;;;11.59;53.05
25510;BME280;13413;52.336;21.200;2023-02-21T12:58:42;99557.67;;;11.51;53.13
25510;BME280;13413;52.336;21.200;2023-02-21T13:01:40;99560.73;;;11.50;53.10
25510;BME280;13413;52.336;21.200;2023-02-21T13:04:36;99564.45;;;11.47;53.05
25510;BME280;13413;52.336;21.200;2023-02-21T13:12:44;99571.08;;;11.49;53.21
25510;BME280;13413;52.336;21.200;2023-02-21T13:15:41;99568.89;;;11.58;53.12
25510;BME280;13413;52.336;21.200;2023-02-21T13:18:38;99577.44;;;11.61;53.30
25510;BME280;13413;52.336;21.200;2023-02-21T13:21:45;99581.23;;;11.51;53.86
25510;BME280;13413;52.336;21.200;2023-02-21T13:24:58;99587.60;;;11.46;53.97
25510;BME280;13413;52.336;21.200;2023-02-21T13:28:02;99587.66;;;11.39;53.96
25510;BME280;13413;52.336;21.200;2023-02-21T13:31:02;99590.48;;;11.49;54.31
25510;BME280;13413;52.336;21.200;2023-02-21T13:33:58;99590.75;;;11.68;54.04
25510;BME280;13413;52.336;21.200;2023-02-21T13:36:53;99596.00;;;11.74;53.73
25510;BME280;13413;52.336;21.200;2023-02-21T13:39:54;99604.52;;;11.70;53.27
25510;BME280;13413;52.336;21.200;2023-02-21T13:42:59;99606.80;;;11.70;53.21
25510;BME280;13413;52.336;21.200;2023-02-21T13:45:54;99606.25;;;11.73;53.38
25510;BME280;13413;52.336;21.200;2023-02-21T13:53:00;99626.11;;;11.51;53.01
25510;BME280;13413;52.336;21.200;2023-02-21T13:59:37;99626.62;;;11.47;52.66
25510;BME280;13413;52.336;21.200;2023-02-21T14:02:34;99631.89;;;11.45;52.50
25510;BME280;13413;52.336;21.200;2023-02-21T14:09:05;99630.88;;;11.35;52.28
25510;BME280;13413;52.336;21.200;2023-02-21T14:15:06;99642.36;;;11.40;51.68
25510;BME280;13413;52.336;21.200;2023-02-21T14:18:01;99644.61;;;11.37;51.83
25510;BME280;13413;52.336;21.200;2023-02-21T14:20:56;99645.86;;;11.42;51.98
25510;BME280;13413;52.336;21.200;2023-02-21T14:23:58;99650.05;;;11.49;52.22
25510;BME280;13413;52.336;21.200;2023-02-21T14:26:55;99655.14;;;11.37;52.56
25510;BME280;13413;52.336;21.200;2023-02-21T14:30:26;99663.38;;;11.33;52.74
25510;BME280;13413;52.336;21.200;2023-02-21T14:33:24;99669.85;;;11.25;53.27
25510;BME280;13413;52.336;21.200;2023-02-21T14:36:18;99668.48;;;11.11;53.44
25510;BME280;13413;52.336;21.200;2023-02-21T14:39:12;99672.66;;;11.07;53.71
25510;BME280;13413;52.336;21.200;2023-02-21T14:42:29;99673.02;;;11.10;53.60
25510;BME280;13413;52.336;21.200;2023-02-21T14:45:38;99677.02;;;11.10;53.60
25510;BME280;13413;52.336;21.200;2023-02-21T14:49:07;99686.27;;;10.95;53.67
25510;BME280;13413;52.336;21.200;2023-02-21T14:52:45;99687.06;;;11.04;53.67
25510;BME280;13413;52.336;21.200;2023-02-21T14:59:35;99698.19;;;11.05;54.35
25510;BME280;13413;52.336;21.200;2023-02-21T15:02:41;99703.18;;;10.96;54.97
25510;BME280;13413;52.336;21.200;2023-02-21T15:05:44;99709.62;;;10.80;55.64
25510;BME280;13413;52.336;21.200;2023-02-21T15:08:45;99718.25;;;10.63;56.03
25510;BME280;13413;52.336;21.200;2023-02-21T15:11:39;99717.59;;;10.56;56.35
25510;BME280;13413;52.336;21.200;2023-02-21T15:14:37;99714.48;;;10.49;56.46
25510;BME280;13413;52.336;21.200;2023-02-21T15:17:32;99718.20;;;10.42;56.69
25510;BME280;13413;52.336;21.200;2023-02-21T15:20:26;99726.93;;;10.37;56.94
25510;BME280;13413;52.336;21.200;2023-02-21T15:23:20;99732.33;;;10.30;57.11
25510;BME280;13413;52.336;21.200;2023-02-21T15:32:13;99737.84;;;10.35;57.38
25510;BME280;13413;52.336;21.200;2023-02-21T15:35:12;99743.70;;;10.34;57.41
25510;BME280;13413;52.336;21.200;2023-02-21T15:38:14;99745.27;;;10.41;57.29
25510;BME280;13413;52.336;21.200;2023-02-21T15:41:25;99745.67;;;10.39;57.31
25510;BME280;13413;52.336;21.200;2023-02-21T15:44:25;99741.93;;;10.37;57.32
25510;BME280;13413;52.336;21.200;2023-02-21T15:47:22;99747.70;;;10.30;57.55
25510;BME280;13413;52.336;21.200;2023-02-21T15:50:28;99747.61;;;10.34;57.47
25510;BME280;13413;52.336;21.200;2023-02-21T15:53:36;99751.42;;;10.40;57.32
25510;BME280;13413;52.336;21.200;2023-02-21T15:56:30;99755.94;;;10.42;57.11
25510;BME280;13413;52.336;21.200;2023-02-21T15:59:28;99759.03;;;10.41;57.15
25510;BME280;13413;52.336;21.200;2023-02-21T16:05:26;99765.76;;;10.41;57.13
25510;BME280;13413;52.336;21.200;2023-02-21T16:08:21;99768.39;;;10.39;57.20
25510;BME280;13413;52.336;21.200;2023-02-21T16:11:15;99774.05;;;10.40;57.12
25510;BME280;13413;52.336;21.200;2023-02-21T16:14:17;99778.17;;;10.42;57.17
25510;BME280;13413;52.336;21.200;2023-02-21T16:20:21;99782.95;;;10.43;57.19
25510;BME280;13413;52.336;21.200;2023-02-21T16:26:23;99788.81;;;10.42;57.27
25510;BME280;13413;52.336;21.200;2023-02-21T16:29:17;99794.38;;;10.41;57.32
25510;BME280;13413;52.336;21.200;2023-02-21T16:32:15;99796.09;;;10.43;57.38
25510;BME280;13413;52.336;21.200;2023-02-21T16:35:16;99799.68;;;10.40;57.27
25510;BME280;13413;52.336;21.200;2023-02-21T16:38:15;99804.61;;;10.40;57.22
25510;BME280;13413;52.336;21.200;2023-02-21T16:41:13;99808.19;;;10.42;57.23
25510;BME280;13413;52.336;21.200;2023-02-21T16:44:07;99808.71;;;10.42;57.24
25510;BME280;13413;52.336;21.200;2023-02-21T16:47:01;99809.69;;;10.49;57.22
25510;BME280;13413;52.336;21.200;2023-02-21T16:49:55;99815.73;;;10.50;57.03
25510;BME280;13413;52.336;21.200;2023-02-21T16:52:49;99822.63;;;10.50;57.06